Time;durP1;ratioP1;P1;durP2;ratioP2;P2;SDS_P1;SDS_P2;PMS_P1;PMS_P2;Temp;Humidity;BMP_temperature;BMP_pressure;BME280_temperature;BME280_humidity;BME280_pressure;Samples;Min_cycle;Max_cycle;Signal;HPM_P1;HPM_P2
2022/01/05 00:00:36;;;;;;;0.03;0.03;;;2.90;99.90;;;;;;5070689;28;20260;-73
2022/01/05 00:03:04;;;;;;;0.03;0.03;;;2.80;99.90;;;;;;5070681;28;20251;-73
2022/01/05 00:05:30;;;;;;;0.30;0.30;;;2.80;99.90;;;;;;5057424;28;20179;-73
2022/01/05 00:07:55;;;;;;;0.10;0.10;;;2.70;99.90;;;;;;5068106;28;20538;-72
2022/01/05 00:10:21;;;;;;;1.03;1.03;;;2.60;99.90;;;;;;5070653;28;20182;-73
2022/01/05 00:12:46;;;;;;;0.00;0.00;;;2.60;99.90;;;;;;5070358;28;20697;-73
2022/01/05 00:15:12;;;;;;;1.50;0.87;;;2.50;99.90;;;;;;5070568;28;20204;-73
2022/01/05 00:17:37;;;;;;;0.00;0.00;;;2.60;99.90;;;;;;5070321;28;20183;-73
2022/01/05 00:20:04;;;;;;;2.43;1.27;;;2.40;99.90;;;;;;5072970;28;20183;-73
2022/01/05 00:22:30;;;;;;;0.00;0.00;;;2.40;99.90;;;;;;5073712;28;20681;-73
2022/01/05 00:24:55;;;;;;;0.67;0.67;;;2.40;99.90;;;;;;5074046;28;20188;-74
2022/01/05 00:27:21;;;;;;;0.00;0.00;;;2.40;99.90;;;;;;5073691;28;20199;-74
2022/01/05 00:29:47;;;;;;;0.00;0.00;;;2.30;99.90;;;;;;5074071;28;20200;-74
2022/01/05 00:32:12;;;;;;;0.00;0.00;;;2.20;99.90;;;;;;5073818;28;20185;-74
2022/01/05 00:34:38;;;;;;;0.10;0.10;;;2.00;99.90;;;;;;5073710;28;20739;-74
2022/01/05 00:37:04;;;;;;;0.00;0.00;;;2.00;99.90;;;;;;5073346;28;20545;-74
2022/01/05 00:39:29;;;;;;;0.03;0.03;;;1.90;99.90;;;;;;5072415;28;20193;-74
2022/01/05 00:41:55;;;;;;;0.00;0.00;;;1.90;99.90;;;;;;5073775;28;20274;-74
2022/01/05 00:44:21;;;;;;;0.00;0.00;;;1.90;99.90;;;;;;5073573;28;20217;-74
2022/01/05 00:46:47;;;;;;;0.00;0.00;;;1.90;99.90;;;;;;5073398;28;20176;-74
2022/01/05 00:49:13;;;;;;;0.00;0.00;;;1.90;99.90;;;;;;5073601;28;20214;-74
2022/01/05 00:51:38;;;;;;;0.10;0.10;;;1.90;99.90;;;;;;5072198;28;20265;-74
2022/01/05 00:54:05;;;;;;;0.10;0.10;;;1.90;99.90;;;;;;5072834;28;20695;-74
2022/01/05 00:56:30;;;;;;;0.07;0.07;;;2.00;99.90;;;;;;5073118;28;20177;-74
2022/01/05 00:58:56;;;;;;;0.10;0.10;;;2.00;99.90;;;;;;5073679;28;20180;-73
2022/01/05 01:01:22;;;;;;;0.10;0.10;;;2.00;99.90;;;;;;5073258;28;20600;-75
2022/01/05 01:03:47;;;;;;;0.00;0.00;;;2.00;99.90;;;;;;5073392;28;20604;-74
2022/01/05 01:06:13;;;;;;;0.53;0.53;;;2.10;99.90;;;;;;5059347;28;20175;-74
2022/01/05 01:08:39;;;;;;;1.00;1.00;;;2.10;99.90;;;;;;5072783;28;20270;-74
2022/01/05 01:11:05;;;;;;;0.93;0.93;;;2.10;99.90;;;;;;5072925;28;20188;-73
2022/01/05 01:13:30;;;;;;;0.00;0.00;;;2.20;99.90;;;;;;5073877;28;20573;-73
2022/01/05 01:15:56;;;;;;;8.90;1.10;;;2.20;99.90;;;;;;5072834;28;20209;-74
2022/01/05 01:18:22;;;;;;;0.30;0.30;;;2.20;99.90;;;;;;5073067;28;20730;-74
2022/01/05 01:20:48;;;;;;;0.00;0.00;;;2.20;99.90;;;;;;5072904;28;20170;-74
2022/01/05 01:23:13;;;;;;;0.37;0.37;;;2.20;99.90;;;;;;5072971;28;20217;-76
2022/01/05 01:25:39;;;;;;;0.77;0.50;;;2.20;99.90;;;;;;5072827;28;20565;-74
2022/01/05 01:28:06;;;;;;;0.83;0.83;;;2.20;99.90;;;;;;5072128;28;20300;-75
2022/01/05 01:30:32;;;;;;;0.10;0.10;;;2.30;99.90;;;;;;5072096;28;20177;-74
2022/01/05 01:32:58;;;;;;;0.10;0.10;;;2.30;99.90;;;;;;5072688;28;20213;-74
2022/01/05 01:35:25;;;;;;;0.97;0.93;;;2.30;99.90;;;;;;5072786;28;20243;-74
2022/01/05 01:37:52;;;;;;;0.33;0.33;;;2.30;99.90;;;;;;5072251;28;20268;-75
2022/01/05 01:40:18;;;;;;;1.97;1.90;;;2.30;99.90;;;;;;5072668;28;20183;-74
2022/01/05 01:42:44;;;;;;;1.20;1.10;;;2.30;99.90;;;;;;5072521;28;20208;-74
2022/01/05 01:45:10;;;;;;;1.33;1.23;;;2.30;99.90;;;;;;5072400;28;20910;-74
2022/01/05 01:47:35;;;;;;;1.60;1.50;;;2.30;99.90;;;;;;5072192;28;20180;-74
2022/01/05 01:50:01;;;;;;;0.00;0.00;;;2.30;99.90;;;;;;5070933;28;20240;-74
2022/01/05 01:52:27;;;;;;;0.00;0.00;;;2.30;99.90;;;;;;5072027;28;20185;-74
2022/01/05 01:54:52;;;;;;;0.53;0.53;;;2.30;99.90;;;;;;5072194;28;20235;-75
2022/01/05 01:57:21;;;;;;;0.77;0.77;;;2.30;99.90;;;;;;5071971;28;20186;-74
2022/01/05 01:59:47;;;;;;;7.83;2.70;;;2.30;99.90;;;;;;5071563;28;20182;-74
2022/01/05 02:02:15;;;;;;;0.37;0.37;;;2.40;99.90;;;;;;5071342;28;20426;-74
2022/01/05 02:04:43;;;;;;;0.97;0.97;;;2.40;99.90;;;;;;5065055;28;20216;-74
2022/01/05 02:07:08;;;;;;;0.10;0.10;;;2.30;99.90;;;;;;5063121;28;20209;-74
2022/01/05 02:09:34;;;;;;;0.23;0.23;;;2.30;99.90;;;;;;5071054;28;20665;-74
2022/01/05 02:12:00;;;;;;;1.83;1.73;;;2.30;99.90;;;;;;5070181;28;20680;-74
2022/01/05 02:14:25;;;;;;;0.53;0.53;;;2.20;99.90;;;;;;5072711;28;20207;-74
2022/01/05 02:16:51;;;;;;;4.23;1.63;;;2.20;99.90;;;;;;5072148;28;20179;-74
2022/01/05 02:19:16;;;;;;;0.77;0.77;;;2.30;99.90;;;;;;5069974;28;20182;-74
2022/01/05 02:21:42;;;;;;;0.20;0.20;;;2.20;99.90;;;;;;5071095;28;20174;-74
2022/01/05 02:24:09;;;;;;;3.30;1.63;;;2.30;99.90;;;;;;5071069;28;20320;-74
2022/01/05 02:26:36;;;;;;;1.03;1.03;;;2.30;99.90;;;;;;5069763;28;20178;-73
2022/01/05 02:29:02;;;;;;;1.63;1.53;;;2.20;99.90;;;;;;5055283;28;20686;-74
2022/01/05 02:31:28;;;;;;;0.10;0.10;;;2.30;99.90;;;;;;5071183;28;20182;-74
2022/01/05 02:33:54;;;;;;;0.83;0.83;;;2.30;99.90;;;;;;5071237;28;20218;-73
2022/01/05 02:36:21;;;;;;;1.03;0.77;;;2.30;99.90;;;;;;5070967;28;20196;-74
2022/01/05 02:38:51;;;;;;;0.27;0.27;;;2.40;99.90;;;;;;5071129;28;20678;-73
2022/01/05 02:41:17;;;;;;;0.63;0.50;;;2.40;99.90;;;;;;5071114;28;20177;-73
2022/01/05 02:43:45;;;;;;;0.43;0.43;;;2.30;99.90;;;;;;5071227;28;20216;-73
2022/01/05 02:46:19;;;;;;;2.13;1.90;;;2.30;99.90;;;;;;5069071;28;20229;-74
2022/01/05 02:48:47;;;;;;;1.63;1.33;;;2.20;99.90;;;;;;5070934;28;20178;-74
2022/01/05 02:51:12;;;;;;;0.50;0.50;;;2.20;99.90;;;;;;5071218;28;20185;-74
2022/01/05 02:53:38;;;;;;;0.20;0.20;;;2.20;99.90;;;;;;5070195;28;20220;-74
2022/01/05 02:56:05;;;;;;;0.00;0.00;;;2.20;99.90;;;;;;5070195;28;20254;-73
2022/01/05 02:58:31;;;;;;;0.73;0.73;;;2.20;99.90;;;;;;5070855;28;20231;-74
2022/01/05 03:00:57;;;;;;;0.10;0.10;;;2.20;99.90;;;;;;5071031;28;20257;-74
2022/01/05 03:03:23;;;;;;;0.40;0.20;;;2.20;99.90;;;;;;5070622;28;20620;-73
2022/01/05 03:05:48;;;;;;;0.10;0.10;;;2.20;99.90;;;;;;5056162;28;20261;-74
2022/01/05 03:08:15;;;;;;;1.07;0.93;;;2.20;99.90;;;;;;5069995;28;20181;-74
2022/01/05 03:10:40;;;;;;;0.57;0.33;;;2.20;99.90;;;;;;5068928;28;20176;-73
2022/01/05 03:13:06;;;;;;;0.63;0.50;;;2.10;99.90;;;;;;5069255;28;20204;-73
2022/01/05 03:15:35;;;;;;;2.47;1.63;;;2.10;99.90;;;;;;5069997;28;20238;-73
2022/01/05 03:18:02;;;;;;;0.17;0.17;;;2.10;99.90;;;;;;5070351;28;20595;-74
2022/01/05 03:20:29;;;;;;;1.23;1.00;;;2.10;99.90;;;;;;5070311;28;20250;-74
2022/01/05 03:22:55;;;;;;;0.20;0.20;;;2.10;99.90;;;;;;5070265;28;20201;-73
2022/01/05 03:25:21;;;;;;;0.37;0.37;;;2.10;99.90;;;;;;5070628;28;20176;-74
2022/01/05 03:27:48;;;;;;;2.17;0.93;;;2.10;99.90;;;;;;5070472;28;20185;-73
2022/01/05 03:30:16;;;;;;;1.07;1.07;;;2.00;99.90;;;;;;5070603;28;20177;-73
2022/01/05 03:33:09;;;;;;;0.40;0.40;;;2.00;99.90;;;;;;5069843;28;20272;-74
2022/01/05 03:35:30;;;;;;;0.37;0.37;;;2.00;99.90;;;;;;5069815;28;20555;-74
2022/01/05 03:37:56;;;;;;;1.70;1.03;;;1.90;99.90;;;;;;5068322;28;20173;-73
2022/01/05 03:40:23;;;;;;;0.13;0.13;;;1.90;99.90;;;;;;5070594;28;20180;-74
2022/01/05 03:42:48;;;;;;;1.43;0.77;;;1.90;99.90;;;;;;5069765;28;20280;-74
2022/01/05 03:45:14;;;;;;;0.00;0.00;;;1.90;99.90;;;;;;5069975;28;20619;-74
2022/01/05 03:47:40;;;;;;;0.40;0.40;;;1.90;99.90;;;;;;5069605;28;20186;-74
2022/01/05 03:50:06;;;;;;;2.30;2.10;;;1.90;99.90;;;;;;5068361;28;20180;-74
2022/01/05 03:52:32;;;;;;;0.70;0.70;;;1.90;99.90;;;;;;5069753;28;20316;-73
2022/01/05 03:54:58;;;;;;;0.27;0.27;;;1.90;99.90;;;;;;5073547;28;20760;-74
2022/01/05 03:57:25;;;;;;;0.93;0.93;;;1.90;99.90;;;;;;5073159;28;20267;-74
2022/01/05 03:59:51;;;;;;;0.33;0.33;;;1.70;99.90;;;;;;5073687;28;20185;-74
2022/01/05 04:02:16;;;;;;;0.10;0.10;;;1.80;99.90;;;;;;5074551;28;20180;-73
2022/01/05 04:04:42;;;;;;;0.00;0.00;;;1.80;99.90;;;;;;5067677;28;20200;-74
2022/01/05 04:07:08;;;;;;;0.30;0.30;;;1.80;99.90;;;;;;5067191;28;20180;-74
2022/01/05 04:09:34;;;;;;;0.00;0.00;;;1.70;99.90;;;;;;5073855;28;20228;-73
2022/01/05 04:11:59;;;;;;;0.10;0.10;;;1.70;99.90;;;;;;5074063;28;20637;-73
2022/01/05 04:14:25;;;;;;;0.27;0.23;;;1.60;99.90;;;;;;5074209;28;20216;-74
2022/01/05 04:16:50;;;;;;;0.30;0.30;;;1.70;99.90;;;;;;5073954;28;20174;-74
2022/01/05 04:19:16;;;;;;;0.30;0.30;;;1.60;99.90;;;;;;5073971;28;20166;-74
2022/01/05 04:21:42;;;;;;;0.20;0.20;;;1.60;99.90;;;;;;5073029;28;20178;-75
2022/01/05 04:24:07;;;;;;;1.33;1.33;;;1.60;99.90;;;;;;5073973;28;20224;-74
2022/01/05 04:26:33;;;;;;;0.00;0.00;;;1.70;99.90;;;;;;5073409;28;20267;-74
2022/01/05 04:28:58;;;;;;;0.20;0.20;;;1.60;99.90;;;;;;5074032;28;20208;-74
2022/01/05 04:31:24;;;;;;;0.00;0.00;;;1.50;99.90;;;;;;5073916;28;20257;-73
2022/01/05 04:33:49;;;;;;;0.03;0.03;;;1.40;99.90;;;;;;5075161;28;20204;-73
2022/01/05 04:36:15;;;;;;;0.30;0.30;;;1.40;99.90;;;;;;5076228;28;20169;-74
2022/01/05 04:38:40;;;;;;;1.33;0.70;;;1.40;99.90;;;;;;5074305;28;20233;-74
2022/01/05 04:41:06;;;;;;;4.13;1.77;;;1.30;99.90;;;;;;5074073;28;20170;-74
2022/01/05 04:43:31;;;;;;;0.67;0.67;;;1.20;99.90;;;;;;5074519;28;20564;-74
2022/01/05 04:45:57;;;;;;;1.50;1.40;;;1.30;99.90;;;;;;5075472;28;20557;-73
2022/01/05 04:48:23;;;;;;;0.07;0.07;;;1.30;99.90;;;;;;5074678;28;20365;-74
2022/01/05 04:50:49;;;;;;;0.20;0.20;;;1.30;99.90;;;;;;5073764;28;20196;-75
2022/01/05 04:53:14;;;;;;;2.27;2.17;;;1.20;99.90;;;;;;5073022;28;20679;-75
2022/01/05 04:55:41;;;;;;;0.13;0.13;;;1.20;99.90;;;;;;5072155;28;20561;-74
2022/01/05 04:58:06;;;;;;;0.40;0.40;;;1.20;99.90;;;;;;5073162;28;20230;-74
2022/01/05 05:00:32;;;;;;;0.10;0.10;;;1.20;99.90;;;;;;5073312;28;20183;-74
2022/01/05 05:02:57;;;;;;;0.93;0.93;;;1.10;99.90;;;;;;5072971;28;20231;-75
2022/01/05 05:05:23;;;;;;;0.10;0.10;;;1.10;99.90;;;;;;5061297;28;20260;-74
2022/01/05 05:07:49;;;;;;;0.00;0.00;;;1.10;99.90;;;;;;5071192;28;20220;-74
2022/01/05 05:10:14;;;;;;;0.00;0.00;;;1.00;99.90;;;;;;5073195;28;20177;-74
2022/01/05 05:12:40;;;;;;;0.30;0.30;;;1.00;99.90;;;;;;5073108;28;20203;-74
2022/01/05 05:15:06;;;;;;;0.10;0.10;;;1.00;99.90;;;;;;5071993;28;20565;-74
2022/01/05 05:17:31;;;;;;;1.07;0.77;;;1.00;99.90;;;;;;5071381;28;20181;-75
2022/01/05 05:19:57;;;;;;;1.47;1.37;;;1.10;99.90;;;;;;5073178;28;20202;-74
2022/01/05 05:22:23;;;;;;;0.00;0.00;;;1.10;99.90;;;;;;5072861;28;20172;-74
2022/01/05 05:24:49;;;;;;;0.90;0.57;;;1.00;99.90;;;;;;5109660;22;20319;-74
2022/01/05 05:27:14;;;;;;;0.83;0.83;;;0.90;99.90;;;;;;5077819;28;20648;-74
2022/01/05 05:29:40;;;;;;;5.50;2.00;;;1.00;99.90;;;;;;5078133;28;20189;-73
2022/01/05 05:32:07;;;;;;;0.20;0.20;;;1.10;99.90;;;;;;5059665;28;20434;-74
2022/01/05 05:34:32;;;;;;;0.00;0.00;;;1.10;99.90;;;;;;5078540;28;20342;-75
2022/01/05 05:36:58;;;;;;;0.67;0.67;;;1.10;99.90;;;;;;5078632;28;20200;-74
2022/01/05 05:39:24;;;;;;;0.77;0.27;;;1.20;99.90;;;;;;5079372;28;20179;-73
2022/01/05 05:41:49;;;;;;;1.40;1.33;;;1.20;99.90;;;;;;5079062;28;20713;-74
2022/01/05 05:44:15;;;;;;;0.10;0.10;;;1.10;99.90;;;;;;5078787;28;20200;-73
2022/01/05 05:46:41;;;;;;;0.50;0.50;;;1.10;99.90;;;;;;5078712;28;20184;-75
2022/01/05 05:49:06;;;;;;;7.73;1.80;;;1.10;99.90;;;;;;5061681;28;20188;-74
2022/01/05 05:51:32;;;;;;;2.27;2.07;;;1.10;99.90;;;;;;5078996;28;20207;-74
2022/01/05 05:53:58;;;;;;;0.00;0.00;;;1.00;99.90;;;;;;5078550;28;20695;-74
2022/01/05 05:56:23;;;;;;;0.00;0.00;;;1.10;99.90;;;;;;5078254;28;20255;-74
2022/01/05 05:58:49;;;;;;;5.50;1.10;;;1.10;99.90;;;;;;5079380;28;20680;-75
2022/01/05 06:01:15;;;;;;;0.00;0.00;;;1.10;99.90;;;;;;5076779;28;20203;-73
2022/01/05 06:03:40;;;;;;;1.30;1.03;;;1.10;99.90;;;;;;5037919;28;20204;-75
2022/01/05 06:06:06;;;;;;;0.87;0.87;;;1.10;99.90;;;;;;5057328;28;20666;-74
2022/01/05 06:08:32;;;;;;;0.00;0.00;;;1.10;99.90;;;;;;5078263;28;20192;-74
2022/01/05 06:10:57;;;;;;;0.30;0.30;;;1.00;99.90;;;;;;5075535;28;20197;-74
2022/01/05 06:13:23;;;;;;;0.00;0.00;;;1.10;99.90;;;;;;5067401;28;20204;-74
2022/01/05 06:15:48;;;;;;;0.13;0.13;;;1.00;99.90;;;;;;5077511;28;20205;-73
2022/01/05 06:18:14;;;;;;;0.10;0.10;;;1.10;99.90;;;;;;5078582;28;20172;-75
2022/01/05 06:20:39;;;;;;;7.50;1.57;;;1.10;99.90;;;;;;5079622;28;20176;-74
2022/01/05 06:23:05;;;;;;;0.10;0.10;;;1.10;99.90;;;;;;5077591;28;20548;-74
2022/01/05 06:25:30;;;;;;;1.60;0.70;;;1.20;99.90;;;;;;5078407;28;20216;-75
2022/01/05 06:27:56;;;;;;;0.10;0.10;;;1.20;99.90;;;;;;5078189;28;20710;-74
2022/01/05 06:30:22;;;;;;;0.87;0.87;;;1.30;99.90;;;;;;5078656;28;20180;-74
2022/01/05 06:32:48;;;;;;;0.43;0.43;;;1.20;99.90;;;;;;5077159;28;20261;-75
2022/01/05 06:35:15;;;;;;;0.10;0.10;;;1.30;99.90;;;;;;5077731;28;20196;-74
2022/01/05 06:37:41;;;;;;;0.03;0.03;;;1.30;99.90;;;;;;5078705;28;20172;-74
2022/01/05 06:40:08;;;;;;;0.33;0.33;;;1.40;99.90;;;;;;5078414;28;20188;-75
2022/01/05 06:42:33;;;;;;;0.70;0.70;;;1.50;99.90;;;;;;5062142;28;20256;-74
2022/01/05 06:44:59;;;;;;;0.20;0.20;;;1.60;99.90;;;;;;5060940;28;20228;-75
2022/01/05 06:47:25;;;;;;;1.50;1.17;;;1.70;99.90;;;;;;5078155;28;20187;-75
2022/01/05 06:49:50;;;;;;;10.93;1.93;;;1.70;99.90;;;;;;5079586;28;20191;-75
2022/01/05 06:52:16;;;;;;;0.07;0.07;;;1.70;99.90;;;;;;5061706;28;20194;-75
2022/01/05 06:54:42;;;;;;;0.80;0.70;;;1.70;99.90;;;;;;5062498;28;20225;-75
2022/01/05 06:57:08;;;;;;;0.10;0.10;;;1.70;99.90;;;;;;5062538;28;20639;-74
2022/01/05 06:59:35;;;;;;;0.67;0.67;;;1.80;99.90;;;;;;5077482;28;20542;-74
2022/01/05 07:02:02;;;;;;;10.00;2.87;;;1.80;99.90;;;;;;5060230;28;20177;-74
2022/01/05 07:04:27;;;;;;;0.00;0.00;;;1.80;99.90;;;;;;5071101;28;20200;-73
2022/01/05 07:06:53;;;;;;;0.00;0.00;;;1.90;99.90;;;;;;5044902;28;20735;-74
2022/01/05 07:09:18;;;;;;;0.00;0.00;;;1.90;99.90;;;;;;5071279;28;20549;-75
2022/01/05 07:11:45;;;;;;;0.10;0.10;;;1.90;99.90;;;;;;5063665;28;20190;-74
2022/01/05 07:14:11;;;;;;;2.47;1.33;;;1.90;99.90;;;;;;5071344;28;20696;-74
2022/01/05 07:16:37;;;;;;;0.13;0.13;;;1.90;99.90;;;;;;5072017;28;20184;-75
2022/01/05 07:19:02;;;;;;;0.00;0.00;;;1.90;99.90;;;;;;5072410;28;20663;-74
2022/01/05 07:21:29;;;;;;;0.37;0.37;;;1.90;99.90;;;;;;5055756;28;20194;-75
2022/01/05 07:23:55;;;;;;;0.10;0.10;;;2.00;99.90;;;;;;5055449;28;20243;-75
2022/01/05 07:26:21;;;;;;;0.97;0.83;;;2.00;99.90;;;;;;5073298;28;20178;-74
2022/01/05 07:28:46;;;;;;;0.10;0.10;;;2.00;99.90;;;;;;5057729;28;20185;-75
2022/01/05 07:31:12;;;;;;;0.63;0.63;;;2.10;99.90;;;;;;5075196;28;20172;-76
2022/01/05 07:33:37;;;;;;;0.00;0.00;;;2.10;99.90;;;;;;5074569;28;20618;-75
2022/01/05 07:36:03;;;;;;;0.00;0.00;;;2.10;99.90;;;;;;5074038;28;20212;-75
2022/01/05 07:38:29;;;;;;;0.00;0.00;;;2.10;99.90;;;;;;5074875;28;20255;-76
2022/01/05 07:40:55;;;;;;;0.43;0.43;;;2.20;99.90;;;;;;5074964;28;20180;-75
2022/01/05 07:43:22;;;;;;;1.10;1.10;;;2.20;99.90;;;;;;5074364;28;20712;-75
2022/01/05 07:45:48;;;;;;;0.30;0.30;;;2.20;99.90;;;;;;5074063;28;20177;-74
2022/01/05 07:48:14;;;;;;;0.07;0.07;;;2.30;99.90;;;;;;5074606;28;20213;-75
2022/01/05 07:50:39;;;;;;;1.13;0.93;;;2.30;99.90;;;;;;5056677;28;20573;-75
2022/01/05 07:53:05;;;;;;;0.10;0.10;;;2.30;99.90;;;;;;5074681;28;20180;-75
2022/01/05 07:55:32;;;;;;;9.23;2.63;;;2.30;99.90;;;;;;5052093;28;20208;-75
2022/01/05 07:57:59;;;;;;;0.20;0.20;;;2.40;99.90;;;;;;5060984;28;20717;-75
2022/01/05 08:00:25;;;;;;;1.70;1.60;;;2.30;99.90;;;;;;5074232;28;20219;-75
2022/01/05 08:02:50;;;;;;;1.53;1.43;;;2.40;99.90;;;;;;5056160;28;20259;-74
2022/01/05 08:05:16;;;;;;;5.53;2.47;;;2.40;99.90;;;;;;5063266;28;20218;-75
2022/01/05 08:07:41;;;;;;;0.03;0.03;;;2.40;99.90;;;;;;5071393;28;20178;-76
2022/01/05 08:10:07;;;;;;;18.30;0.77;;;2.40;99.90;;;;;;5074595;28;20182;-75
2022/01/05 08:12:33;;;;;;;4.43;1.03;;;2.40;99.90;;;;;;5058157;28;20173;-75
2022/01/05 08:14:58;;;;;;;0.30;0.30;;;2.30;99.90;;;;;;5047234;28;20714;-75
2022/01/05 08:17:24;;;;;;;0.17;0.17;;;2.40;99.90;;;;;;5073890;28;20239;-74
2022/01/05 08:19:49;;;;;;;0.80;0.80;;;2.40;99.90;;;;;;5075470;28;20529;-75
2022/01/05 08:22:15;;;;;;;0.50;0.50;;;2.40;99.90;;;;;;5074560;28;20176;-75
2022/01/05 08:24:41;;;;;;;0.57;0.57;;;2.40;99.90;;;;;;5075535;28;20235;-75
2022/01/05 08:27:06;;;;;;;0.00;0.00;;;2.40;99.90;;;;;;5074574;28;20187;-75
2022/01/05 08:29:32;;;;;;;0.60;0.10;;;2.40;99.90;;;;;;5075367;28;20681;-74
2022/01/05 08:32:02;;;;;;;0.20;0.20;;;2.40;99.90;;;;;;5074413;28;20188;-75
2022/01/05 08:34:29;;;;;;;0.00;0.00;;;2.40;99.90;;;;;;5075037;28;20254;-75
2022/01/05 08:36:54;;;;;;;0.53;0.53;;;2.40;99.90;;;;;;5057494;28;20177;-72
2022/01/05 08:39:20;;;;;;;0.13;0.13;;;2.50;99.90;;;;;;5074917;28;20314;-75
2022/01/05 08:41:46;;;;;;;0.10;0.10;;;2.50;99.90;;;;;;5057657;28;20185;-75
2022/01/05 08:44:11;;;;;;;0.00;0.00;;;2.60;99.90;;;;;;5056921;28;20198;-74
2022/01/05 08:46:37;;;;;;;0.87;0.87;;;2.70;99.90;;;;;;5074436;28;20587;-75
2022/01/05 08:49:02;;;;;;;0.47;0.47;;;2.70;99.90;;;;;;5074530;28;20660;-75
2022/01/05 08:51:28;;;;;;;0.10;0.10;;;2.70;99.90;;;;;;5074868;28;20256;-75
2022/01/05 08:53:54;;;;;;;0.50;0.50;;;2.70;99.90;;;;;;5074801;28;20197;-75
2022/01/05 08:56:23;;;;;;;0.13;0.13;;;2.80;99.90;;;;;;5056722;28;20685;-75
2022/01/05 08:58:49;;;;;;;2.73;1.27;;;2.80;99.90;;;;;;5056631;28;20175;-74
2022/01/05 09:01:15;;;;;;;0.43;0.43;;;2.80;99.90;;;;;;5074758;28;20255;-75
2022/01/05 09:03:40;;;;;;;0.33;0.33;;;2.80;99.90;;;;;;5056695;28;20201;-75
2022/01/05 09:06:07;;;;;;;1.10;0.40;;;2.90;99.90;;;;;;5061134;28;20530;-74
2022/01/05 09:08:33;;;;;;;0.00;0.00;;;2.90;99.90;;;;;;5055849;28;20665;-76
2022/01/05 09:10:59;;;;;;;2.20;1.90;;;2.90;99.90;;;;;;5071128;28;20200;-75
2022/01/05 09:13:24;;;;;;;0.00;0.00;;;3.00;99.90;;;;;;5065545;28;20277;-74
2022/01/05 09:15:50;;;;;;;0.00;0.00;;;3.00;99.90;;;;;;5073928;28;20283;-73
2022/01/05 09:18:16;;;;;;;0.70;0.70;;;3.00;99.90;;;;;;5056020;28;20204;-75
2022/01/05 09:20:41;;;;;;;0.53;0.53;;;3.00;99.90;;;;;;5074089;28;20183;-74
2022/01/05 09:23:07;;;;;;;0.00;0.00;;;3.00;99.90;;;;;;5073732;28;20642;-74
2022/01/05 09:25:33;;;;;;;0.10;0.10;;;3.00;99.90;;;;;;5055985;28;20186;-75
2022/01/05 09:27:59;;;;;;;0.50;0.50;;;3.00;99.90;;;;;;5055879;28;20198;-74
2022/01/05 09:30:26;;;;;;;0.40;0.40;;;3.10;99.90;;;;;;5073847;28;20202;-75
2022/01/05 09:32:52;;;;;;;1.60;0.90;;;3.10;99.90;;;;;;5073089;28;20517;-74
2022/01/05 09:35:21;;;;;;;0.17;0.17;;;3.10;99.90;;;;;;5055041;28;20263;-75
2022/01/05 09:38:09;;;;;;;1.40;1.13;;;3.10;99.90;;;;;;5073187;28;20727;-74
2022/01/05 09:43:19;;;;;;;0.43;0.43;;;3.20;99.90;;;;;;5074067;28;20189;-75
2022/01/05 09:46:09;;;;;;;0.33;0.33;;;3.30;99.90;;;;;;5073671;28;20179;-73
2022/01/05 09:48:53;;;;;;;5.60;3.50;;;3.40;99.90;;;;;;5074575;28;20266;-75
2022/01/05 09:51:22;;;;;;;1.53;1.50;;;3.50;99.90;;;;;;5076525;28;20174;-75
2022/01/05 09:53:49;;;;;;;1.60;1.53;;;3.60;99.90;;;;;;5074504;28;20192;-74
2022/01/05 09:56:15;;;;;;;0.10;0.10;;;3.70;99.90;;;;;;5074892;28;20221;-74
2022/01/05 09:58:42;;;;;;;0.17;0.17;;;3.80;99.90;;;;;;5077076;28;20178;-75
2022/01/05 10:01:08;;;;;;;0.50;0.50;;;3.80;99.90;;;;;;5076723;28;20663;-74
2022/01/05 10:03:33;;;;;;;0.10;0.10;;;3.70;99.90;;;;;;5077057;28;20221;-74
2022/01/05 10:06:01;;;;;;;0.73;0.73;;;3.60;99.90;;;;;;5045603;28;20189;-74
2022/01/05 10:08:27;;;;;;;1.13;1.03;;;3.60;99.90;;;;;;5076544;28;20187;-74
2022/01/05 10:10:59;;;;;;;0.57;0.57;;;3.60;99.90;;;;;;5121004;27;20587;-75
2022/01/05 10:13:24;;;;;;;0.77;0.33;;;3.70;99.90;;;;;;5099728;28;20199;-74
2022/01/05 10:15:50;;;;;;;0.17;0.17;;;3.80;99.90;;;;;;5073467;28;20175;-74
2022/01/05 10:18:18;;;;;;;0.77;0.67;;;3.80;99.90;;;;;;5069759;28;20589;-74
2022/01/05 10:21:02;;;;;;;0.20;0.20;;;3.80;99.90;;;;;;5070115;28;20198;-75
2022/01/05 10:23:45;;;;;;;1.83;1.73;;;3.80;99.90;;;;;;5070592;28;20229;-74
2022/01/05 10:26:31;;;;;;;1.80;1.70;;;3.80;99.90;;;;;;5070720;28;20194;-75
2022/01/05 10:29:05;;;;;;;3.03;2.83;;;4.00;99.90;;;;;;5069680;28;20211;-75
2022/01/05 10:31:33;;;;;;;0.13;0.13;;;4.00;99.90;;;;;;5070981;28;20217;-75
2022/01/05 10:34:12;;;;;;;0.90;0.90;;;4.10;99.90;;;;;;5070763;28;20192;-74
2022/01/05 10:36:45;;;;;;;2.83;1.57;;;4.10;99.90;;;;;;5070519;28;20175;-75
2022/01/05 10:39:11;;;;;;;0.20;0.20;;;4.00;99.90;;;;;;5070155;28;20231;-74
2022/01/05 10:41:38;;;;;;;3.33;0.53;;;4.00;99.90;;;;;;5070423;28;20185;-75
2022/01/05 10:44:18;;;;;;;0.17;0.17;;;4.10;99.90;;;;;;5069454;28;20207;-74
2022/01/05 10:46:49;;;;;;;2.43;1.80;;;4.00;99.90;;;;;;5069011;28;20177;-75
2022/01/05 10:49:31;;;;;;;0.63;0.63;;;4.00;99.90;;;;;;5070616;28;20239;-74
2022/01/05 10:52:00;;;;;;;0.10;0.10;;;3.90;99.90;;;;;;5071804;28;20172;-75
2022/01/05 10:54:29;;;;;;;0.70;0.70;;;4.00;99.90;;;;;;5071180;28;20214;-75
2022/01/05 10:57:07;;;;;;;7.63;1.17;;;4.00;99.90;;;;;;5071313;28;20598;-75
2022/01/05 10:59:38;;;;;;;1.20;1.20;;;4.20;99.90;;;;;;5071543;28;20679;-75
2022/01/05 11:02:22;;;;;;;0.10;0.10;;;4.40;99.90;;;;;;5070755;28;20548;-75
2022/01/05 11:05:08;;;;;;;0.03;0.03;;;4.90;99.90;;;;;;5078073;28;20199;-75
2022/01/05 11:07:38;;;;;;;1.03;0.83;;;5.10;99.90;;;;;;5082981;28;20199;-75
2022/01/05 11:10:08;;;;;;;24.50;1.47;;;5.30;99.90;;;;;;5088422;28;20220;-74
2022/01/05 11:12:36;;;;;;;0.30;0.30;;;5.00;99.90;;;;;;5080765;28;20204;-76
2022/01/05 11:15:23;;;;;;;0.67;0.53;;;4.80;99.90;;;;;;5080550;28;20218;-75
2022/01/05 11:18:09;;;;;;;0.97;0.97;;;4.60;99.90;;;;;;5069946;28;20187;-75
2022/01/05 11:21:02;;;;;;;1.07;0.60;;;4.70;99.90;;;;;;5065779;28;20183;-75
2022/01/05 11:23:30;;;;;;;0.40;0.40;;;4.60;99.90;;;;;;5048735;28;20599;-74
2022/01/05 11:25:58;;;;;;;0.20;0.20;;;4.50;99.90;;;;;;5061841;28;20182;-75
2022/01/05 11:28:26;;;;;;;0.40;0.40;;;4.60;99.90;;;;;;5056753;28;20710;-75
2022/01/05 11:30:54;;;;;;;0.07;0.07;;;4.60;99.90;;;;;;5074462;22;20237;-74
2022/01/05 11:33:20;;;;;;;0.13;0.13;;;4.70;99.90;;;;;;5052974;28;20544;-74
2022/01/05 11:35:46;;;;;;;2.23;1.50;;;4.70;99.90;;;;;;5034849;28;20179;-73
2022/01/05 11:38:13;;;;;;;4.33;1.87;;;4.60;99.90;;;;;;5034535;28;20172;-74
2022/01/05 11:40:45;;;;;;;0.97;0.63;;;4.40;99.90;;;;;;5053277;28;20257;-74
2022/01/05 11:43:15;;;;;;;0.60;0.60;;;4.40;99.90;;;;;;5053561;28;20213;-74
2022/01/05 11:45:47;;;;;;;0.83;0.83;;;4.50;99.90;;;;;;5053080;28;20282;-73
2022/01/05 11:48:21;;;;;;;0.10;0.10;;;4.60;99.90;;;;;;5035618;28;20180;-74
2022/01/05 11:50:52;;;;;;;1.43;1.33;;;4.60;99.90;;;;;;5052866;28;20204;-74
2022/01/05 11:53:34;;;;;;;0.33;0.33;;;4.70;99.90;;;;;;5052874;28;20176;-73
2022/01/05 11:55:59;;;;;;;0.60;0.60;;;4.80;99.90;;;;;;5035151;28;20550;-73
2022/01/05 11:58:29;;;;;;;0.40;0.40;;;4.90;99.90;;;;;;5035140;28;20275;-74
2022/01/05 12:01:13;;;;;;;0.23;0.23;;;5.00;99.90;;;;;;5052966;28;20197;-74
2022/01/05 12:03:57;;;;;;;1.40;0.40;;;5.00;99.90;;;;;;5052613;28;20185;-74
2022/01/05 12:06:24;;;;;;;0.40;0.40;;;5.20;99.90;;;;;;5039705;28;20230;-74
2022/01/05 12:08:59;;;;;;;0.60;0.40;;;5.30;99.90;;;;;;5052609;28;20246;-74
2022/01/05 12:11:43;;;;;;;1.93;1.80;;;5.30;99.90;;;;;;5034539;28;20173;-74
2022/01/05 12:14:21;;;;;;;3.40;1.80;;;5.10;99.90;;;;;;5052587;28;20179;-74
2022/01/05 12:17:02;;;;;;;3.13;1.80;;;4.90;99.90;;;;;;5034528;28;20173;-74
2022/01/05 12:19:48;;;;;;;0.00;0.00;;;4.80;99.90;;;;;;5051575;28;20219;-74
2022/01/05 12:22:20;;;;;;;0.17;0.17;;;4.70;99.90;;;;;;5038108;28;20266;-74
2022/01/05 12:25:09;;;;;;;0.10;0.10;;;4.80;99.90;;;;;;5052549;28;20726;-73
2022/01/05 12:27:39;;;;;;;0.10;0.10;;;4.80;99.90;;;;;;5052327;28;20189;-74
2022/01/05 12:30:16;;;;;;;0.20;0.20;;;4.80;99.90;;;;;;5061816;28;20216;-74
2022/01/05 12:32:44;;;;;;;4.47;1.73;;;4.90;99.90;;;;;;5054902;28;20176;-74
2022/01/05 12:35:19;;;;;;;0.65;0.65;;;5.00;99.90;;;;;;5072058;28;20872;-74
2022/01/05 12:37:56;;;;;;;0.20;0.20;;;5.10;99.90;;;;;;5071932;28;20172;-74
2022/01/05 12:40:34;;;;;;;0.87;0.73;;;5.20;99.90;;;;;;5053962;28;20200;-74
2022/01/05 12:43:09;;;;;;;0.50;0.50;;;5.20;99.90;;;;;;5072148;28;20180;-73
2022/01/05 12:45:49;;;;;;;0.37;0.37;;;5.10;99.90;;;;;;5071975;28;20225;-74
2022/01/05 12:48:33;;;;;;;0.73;0.50;;;5.20;99.90;;;;;;5072064;28;20176;-74
2022/01/05 12:51:17;;;;;;;2.47;1.20;;;5.20;99.90;;;;;;5071668;28;20287;-73
2022/01/05 12:53:56;;;;;;;0.67;0.67;;;5.00;99.90;;;;;;5072222;28;20179;-74
2022/01/05 12:56:49;;;;;;;1.00;0.97;;;5.00;99.90;;;;;;5053701;28;20172;-74
2022/01/05 12:59:29;;;;;;;0.63;0.20;;;5.00;99.90;;;;;;5053251;28;20217;-74
2022/01/05 13:02:04;;;;;;;1.60;1.13;;;5.00;99.90;;;;;;5071037;28;20666;-74
2022/01/05 13:04:30;;;;;;;0.10;0.10;;;5.00;99.90;;;;;;5071498;28;20179;-74